Terminal Aerodrome Forecast
Issued by NWS

Home | Current Version | Previous Version | Text Only | Print | Product List | Glossary On
Versions: 1 2 3 4 5 6 7 8 9 10 11 12 13 14 15 16 17 18 19 20 21 22 23 24 25 26 27 28 29 30
000
FTUS45 KGJT 291719 AAD
TAFDRO
TAF AMD
KDRO 291719Z 2917/3012 24007KT P6SM VCSH BKN070
     FM292000 27011KT P6SM VCSH BKN080
     FM292300 29012KT P6SM BKN090
     FM300200 29008KT P6SM BKN120
     FM300500 30004KT P6SM SCT200=

USA.gov is the U.S. government's official web portal to all federal, state and local government web resources and services.